KSMD/SMD METAR and TAF weather

Enter ICAO airport designator
Station Type Date Time Source
KSMD METAR 2021/07/29 17:55 UTC NOAA

KSMD 291755Z AUTO 28009KT 10SM OVC042 28/22 A2991 RMK A01


Station Type Date Time Source
KSMD Decoded METAR 2021/07/29 17:55 UTC NOAA

Station name not available
Jul 29, 2021 - 01:55 PM EDT / 2021.07.29 1755 UTC
Wind: from the W (280 degrees) at 10 MPH (9 KT):0
Visibility: 10 mile(s):0
Sky conditions: overcast
Temperature: 82 F (28 C)
Dew Point: 71 F (22 C)
Relative Humidity: 69%
Pressure (altimeter): 29.91 in. Hg (1012 hPa)
ob: KSMD 291755Z AUTO 28009KT 10SM OVC042 28/22 A2991 RMK A01
cycle: 18

Station Type Date Time Source
KSMD TAF UTC NOAA

Error!

Example: see airport list